Time;durP1;ratioP1;P1;durP2;ratioP2;P2;SDS_P1;SDS_P2;PMS_P1;PMS_P2;Temp;Humidity;BMP_temperature;BMP_pressure;BME280_temperature;BME280_humidity;BME280_pressure;Samples;Min_cycle;Max_cycle;Signal;HPM_P1;HPM_P2
2023/05/24 00:00:17;;;;;;;15.05;2.33;;;10.30;99.90;;;;;;5011275;28;20493;-77
2023/05/24 00:02:43;;;;;;;10.95;2.28;;;10.30;99.90;;;;;;4997133;28;20075;-78
2023/05/24 00:05:09;;;;;;;11.43;2.10;;;10.30;99.90;;;;;;5011601;28;20057;-77
2023/05/24 00:07:36;;;;;;;16.98;2.35;;;10.30;99.90;;;;;;5013927;28;20377;-78
2023/05/24 00:10:06;;;;;;;13.27;2.65;;;10.30;99.90;;;;;;4994891;28;20026;-77
2023/05/24 00:12:32;;;;;;;15.45;2.40;;;10.20;99.90;;;;;;5014327;28;20025;-77
2023/05/24 00:15:00;;;;;;;12.07;2.42;;;10.20;99.90;;;;;;5014157;28;20026;-77
2023/05/24 00:17:26;;;;;;;10.25;1.80;;;10.20;99.90;;;;;;4997815;28;20034;-76
2023/05/24 00:19:52;;;;;;;14.23;2.65;;;10.10;99.90;;;;;;4998597;28;20495;-76
2023/05/24 00:22:20;;;;;;;13.50;2.00;;;10.10;99.90;;;;;;5010539;28;20033;-78
2023/05/24 00:24:46;;;;;;;7.72;2.10;;;10.10;99.90;;;;;;5010297;28;20045;-77
2023/05/24 00:27:13;;;;;;;17.70;2.90;;;10.10;99.90;;;;;;5015051;28;20125;-77
2023/05/24 00:29:39;;;;;;;13.60;2.13;;;10.10;99.90;;;;;;5000519;28;20063;-77
2023/05/24 00:32:05;;;;;;;9.93;2.05;;;10.10;99.90;;;;;;5002381;28;20108;-76
2023/05/24 00:34:30;;;;;;;8.40;1.92;;;10.10;99.90;;;;;;5010995;28;20129;-76
2023/05/24 00:36:56;;;;;;;18.52;2.55;;;10.10;99.90;;;;;;5001748;28;20053;-78
2023/05/24 00:39:22;;;;;;;9.70;2.08;;;10.10;99.90;;;;;;4995687;28;20025;-78
2023/05/24 00:41:48;;;;;;;21.58;2.83;;;10.00;99.90;;;;;;5010850;28;20411;-77
2023/05/24 00:44:14;;;;;;;20.55;2.38;;;10.10;99.90;;;;;;5002010;28;20034;-77
2023/05/24 00:46:42;;;;;;;11.35;2.35;;;10.00;99.90;;;;;;5002683;28;20449;-78
2023/05/24 00:49:08;;;;;;;8.90;1.98;;;10.00;99.90;;;;;;4996643;28;20022;-76
2023/05/24 00:51:35;;;;;;;15.18;2.65;;;10.00;99.90;;;;;;4995651;28;20420;-77
2023/05/24 00:54:01;;;;;;;17.00;2.13;;;10.00;99.90;;;;;;5014269;28;20104;-76
2023/05/24 00:56:27;;;;;;;15.32;2.38;;;10.00;99.90;;;;;;5013208;28;20387;-77
2023/05/24 00:58:55;;;;;;;26.38;2.88;;;9.90;99.90;;;;;;5009878;28;20106;-77
2023/05/24 01:01:29;;;;;;;14.40;2.03;;;9.90;99.90;;;;;;5001565;28;20393;-77
2023/05/24 01:03:56;;;;;;;10.65;2.03;;;9.90;99.90;;;;;;5011369;28;20088;-76
2023/05/24 01:06:23;;;;;;;18.15;2.92;;;9.90;99.90;;;;;;5012624;28;20109;-76
2023/05/24 01:09:21;;;;;;;17.27;2.53;;;9.80;99.90;;;;;;4993609;28;20540;-75
2023/05/24 01:11:56;;;;;;;15.50;2.53;;;9.80;99.90;;;;;;4991571;28;20053;-75
2023/05/24 01:14:25;;;;;;;14.07;2.53;;;9.80;99.90;;;;;;5015012;28;20097;-75
2023/05/24 01:16:59;;;;;;;17.05;3.10;;;9.80;99.90;;;;;;5013512;28;20499;-77
2023/05/24 01:19:50;;;;;;;10.85;2.92;;;9.80;99.90;;;;;;5010792;28;20415;-75
2023/05/24 01:22:37;;;;;;;20.20;2.38;;;9.70;99.90;;;;;;4995612;28;20033;-76
2023/05/24 01:25:28;;;;;;;10.00;2.08;;;9.60;99.90;;;;;;5012520;28;20038;-77
2023/05/24 01:27:54;;;;;;;12.68;3.08;;;9.60;99.90;;;;;;4950052;28;20052;-76
2023/05/24 01:30:20;;;;;;;8.57;2.15;;;9.60;99.90;;;;;;4996448;28;20434;-77
2023/05/24 01:32:46;;;;;;;12.82;2.70;;;9.60;99.90;;;;;;5009530;28;20028;-75
2023/05/24 01:35:11;;;;;;;20.65;2.22;;;9.50;99.90;;;;;;4991871;28;20116;-75
2023/05/24 01:37:37;;;;;;;9.57;2.50;;;9.50;99.90;;;;;;5013306;28;20030;-75
2023/05/24 01:40:03;;;;;;;6.15;2.30;;;9.50;99.90;;;;;;4999269;28;20244;-75
2023/05/24 01:42:47;;;;;;;16.23;2.55;;;9.50;99.90;;;;;;5012331;28;20033;-75
2023/05/24 01:45:19;;;;;;;10.23;2.13;;;9.50;99.90;;;;;;5012070;28;20470;-75
2023/05/24 01:48:01;;;;;;;11.65;2.83;;;9.50;99.90;;;;;;4994297;28;20478;-75
2023/05/24 01:50:44;;;;;;;13.77;2.23;;;9.40;99.90;;;;;;4993386;28;20033;-75
2023/05/24 01:53:15;;;;;;;11.73;2.15;;;9.40;99.90;;;;;;5011202;28;20108;-74
2023/05/24 01:55:42;;;;;;;10.95;2.30;;;9.40;99.90;;;;;;5010424;28;20045;-75
2023/05/24 01:58:10;;;;;;;19.60;2.83;;;9.40;99.90;;;;;;4995725;28;20029;-75
2023/05/24 02:00:36;;;;;;;13.10;2.25;;;9.40;99.90;;;;;;5012586;28;20069;-76
2023/05/24 02:03:02;;;;;;;15.85;2.80;;;9.40;99.90;;;;;;5013176;28;20091;-75
2023/05/24 02:05:27;;;;;;;15.38;2.63;;;9.40;99.90;;;;;;5012169;28;20030;-76
2023/05/24 02:07:53;;;;;;;9.20;2.83;;;9.40;99.90;;;;;;5010129;28;20026;-75
2023/05/24 02:10:18;;;;;;;12.27;2.47;;;9.40;99.90;;;;;;5014292;28;20116;-76
2023/05/24 02:12:45;;;;;;;14.52;2.65;;;9.40;99.90;;;;;;5003664;28;20057;-75
2023/05/24 02:15:13;;;;;;;10.13;2.28;;;9.40;99.90;;;;;;4991724;28;20034;-76
2023/05/24 02:17:39;;;;;;;10.68;2.50;;;9.40;99.90;;;;;;5015094;28;20009;-75
2023/05/24 02:20:05;;;;;;;12.35;2.92;;;9.40;99.90;;;;;;4997906;28;20033;-75
2023/05/24 02:22:31;;;;;;;16.15;2.60;;;9.40;99.90;;;;;;5017390;28;20018;-76
2023/05/24 02:24:57;;;;;;;14.90;2.88;;;9.40;99.90;;;;;;4998873;28;20444;-75
2023/05/24 02:27:22;;;;;;;15.10;2.90;;;9.40;99.90;;;;;;4996089;28;20049;-76
2023/05/24 02:29:48;;;;;;;23.52;3.35;;;9.30;99.90;;;;;;5015085;28;20053;-75
2023/05/24 02:32:13;;;;;;;8.57;2.05;;;9.40;99.90;;;;;;5013312;28;20474;-76
2023/05/24 02:34:41;;;;;;;18.42;3.20;;;9.30;99.90;;;;;;4994530;28;20560;-75
2023/05/24 02:37:07;;;;;;;12.57;2.88;;;9.30;99.90;;;;;;5023175;28;20016;-79
2023/05/24 02:39:32;;;;;;;13.93;3.05;;;9.30;99.90;;;;;;5024516;28;20532;-85
2023/05/24 02:41:58;;;;;;;13.82;3.00;;;9.30;99.90;;;;;;5018503;28;20489;-82
2023/05/24 02:44:24;;;;;;;24.35;3.78;;;9.30;99.90;;;;;;5014928;28;20034;-74
2023/05/24 02:46:49;;;;;;;14.52;3.15;;;9.20;99.90;;;;;;5014595;28;20026;-75
2023/05/24 02:49:15;;;;;;;17.52;3.45;;;9.20;99.90;;;;;;5014896;28;20041;-75
2023/05/24 02:51:40;;;;;;;12.00;2.95;;;9.10;99.90;;;;;;5012390;28;20057;-83
2023/05/24 02:54:06;;;;;;;24.20;4.18;;;9.10;99.90;;;;;;5016066;28;20257;-82
2023/05/24 02:56:33;;;;;;;12.45;3.13;;;9.10;99.90;;;;;;4997953;28;20272;-84
2023/05/24 02:58:59;;;;;;;15.68;2.80;;;9.10;99.90;;;;;;5023629;28;20371;-84
2023/05/24 03:01:24;;;;;;;16.63;3.60;;;9.10;99.90;;;;;;5018082;28;20044;-85
2023/05/24 03:03:50;;;;;;;14.23;3.28;;;9.00;99.90;;;;;;5012595;28;20025;-84
2023/05/24 03:06:15;;;;;;;17.92;2.90;;;9.00;99.90;;;;;;5016420;28;20097;-83
2023/05/24 03:08:41;;;;;;;16.88;2.80;;;9.00;99.90;;;;;;5038674;28;20026;-81
2023/05/24 03:11:07;;;;;;;13.70;3.17;;;9.00;99.90;;;;;;5010459;28;20017;-84
2023/05/24 03:13:32;;;;;;;14.05;3.25;;;9.00;99.90;;;;;;5039265;28;20033;-82
2023/05/24 03:16:00;;;;;;;11.55;3.22;;;8.90;99.90;;;;;;5014387;28;20021;-87
2023/05/24 03:18:26;;;;;;;8.57;3.13;;;8.90;99.90;;;;;;5007104;28;20385;-84
2023/05/24 03:20:51;;;;;;;11.50;3.05;;;8.90;99.90;;;;;;5008071;28;20021;-82
2023/05/24 03:23:17;;;;;;;13.80;3.28;;;8.80;99.90;;;;;;5017583;28;20775;-85
2023/05/24 03:25:42;;;;;;;12.30;3.35;;;8.80;99.90;;;;;;5018896;28;20026;-84
2023/05/24 03:28:08;;;;;;;22.80;3.78;;;8.80;99.90;;;;;;5150566;22;20137;-77
2023/05/24 03:30:33;;;;;;;15.13;3.80;;;8.80;99.90;;;;;;4996395;28;20030;-74
2023/05/24 03:33:00;;;;;;;17.60;3.70;;;8.80;99.90;;;;;;5007580;28;20014;-78
2023/05/24 03:35:25;;;;;;;16.25;2.85;;;8.80;99.90;;;;;;5017239;28;20384;-84
2023/05/24 03:37:52;;;;;;;15.18;3.38;;;8.80;99.90;;;;;;5001980;28;20533;-85
2023/05/24 03:40:17;;;;;;;22.83;3.75;;;8.80;99.90;;;;;;5013798;28;20022;-85
2023/05/24 03:42:43;;;;;;;21.75;3.30;;;8.80;99.90;;;;;;5014253;28;20044;-85
2023/05/24 03:45:09;;;;;;;22.08;3.58;;;8.90;99.90;;;;;;5014953;28;20128;-86
2023/05/24 03:47:37;;;;;;;20.30;3.53;;;8.90;99.90;;;;;;4989429;28;20033;-76
2023/05/24 03:50:03;;;;;;;19.67;3.45;;;8.90;99.90;;;;;;4996415;28;20026;-77
2023/05/24 03:52:31;;;;;;;23.60;3.65;;;8.90;99.90;;;;;;5007371;28;20033;-77
2023/05/24 03:54:56;;;;;;;13.30;3.63;;;8.90;99.90;;;;;;5012584;28;20489;-87
2023/05/24 03:57:22;;;;;;;24.50;4.05;;;8.90;99.90;;;;;;5002095;28;20118;-86
2023/05/24 03:59:47;;;;;;;17.65;3.85;;;8.80;99.90;;;;;;5016631;28;20361;-81
2023/05/24 04:02:13;;;;;;;16.35;3.58;;;8.90;99.90;;;;;;5009004;28;20049;-84
2023/05/24 04:04:39;;;;;;;18.52;4.00;;;8.90;99.90;;;;;;5015713;28;20564;-88
2023/05/24 04:07:04;;;;;;;15.73;3.70;;;8.90;99.90;;;;;;4998007;28;20439;-87
2023/05/24 04:12:05;;;;;;;22.23;3.85;;;9.00;99.90;;;;;;5014784;28;20052;-76
2023/05/24 04:14:31;;;;;;;18.15;3.63;;;9.10;99.90;;;;;;5020062;28;20037;-78
2023/05/24 04:16:57;;;;;;;18.00;4.13;;;9.10;99.90;;;;;;5021320;28;20021;-87
2023/05/24 04:19:25;;;;;;;18.95;4.05;;;9.20;99.90;;;;;;5024415;28;20021;-75
2023/05/24 04:21:50;;;;;;;17.35;4.07;;;9.30;99.90;;;;;;5019992;28;20350;-75
2023/05/24 04:24:16;;;;;;;16.58;4.05;;;9.50;99.90;;;;;;5019577;28;20075;-75
2023/05/24 04:26:42;;;;;;;15.48;3.45;;;9.60;99.90;;;;;;5020010;28;20032;-76
2023/05/24 04:29:07;;;;;;;16.95;4.15;;;9.60;99.90;;;;;;5017632;28;20033;-76
2023/05/24 04:31:33;;;;;;;19.85;4.65;;;9.70;99.90;;;;;;5018707;28;20521;-76
2023/05/24 04:33:59;;;;;;;17.17;3.95;;;9.90;99.90;;;;;;5017856;28;20112;-75
2023/05/24 04:36:25;;;;;;;19.83;4.07;;;9.90;99.90;;;;;;5022681;28;20100;-74
2023/05/24 04:38:54;;;;;;;24.38;4.13;;;10.10;99.90;;;;;;5168619;22;20114;-76
2023/05/24 04:41:21;;;;;;;19.52;3.90;;;10.10;99.90;;;;;;4996733;28;20427;-77
2023/05/24 04:43:49;;;;;;;16.63;4.78;;;10.20;99.90;;;;;;5000502;28;20044;-85
2023/05/24 04:46:14;;;;;;;15.82;4.30;;;10.20;99.90;;;;;;5000246;28;20018;-84
2023/05/24 04:48:40;;;;;;;23.63;4.85;;;10.20;99.90;;;;;;5003644;28;20537;-88
2023/05/24 04:51:08;;;;;;;20.00;3.90;;;10.30;99.90;;;;;;4992762;28;20025;-85
2023/05/24 04:53:33;;;;;;;15.30;4.13;;;10.40;99.90;;;;;;5004418;28;20065;-88
2023/05/24 04:55:59;;;;;;;26.58;4.43;;;10.40;99.90;;;;;;4984747;28;20037;-85
2023/05/24 04:58:24;;;;;;;20.33;3.78;;;10.30;99.90;;;;;;5003836;28;20022;-88
2023/05/24 05:00:50;;;;;;;17.75;4.35;;;10.30;99.90;;;;;;5004405;28;20394;-86
2023/05/24 05:03:16;;;;;;;18.58;4.72;;;10.30;99.90;;;;;;5000848;28;20033;-75
2023/05/24 05:05:41;;;;;;;20.98;4.65;;;10.40;99.90;;;;;;5000114;28;20049;-76
2023/05/24 05:08:07;;;;;;;25.60;3.42;;;10.50;99.90;;;;;;4997776;28;20101;-76
2023/05/24 05:10:32;;;;;;;16.17;4.13;;;10.60;99.90;;;;;;4999763;28;20036;-77
2023/05/24 05:12:58;;;;;;;19.50;4.40;;;10.70;99.90;;;;;;4999583;28;20022;-75
2023/05/24 05:15:24;;;;;;;21.30;4.43;;;10.80;99.90;;;;;;4997623;28;20061;-77
2023/05/24 05:17:49;;;;;;;27.13;4.80;;;10.80;99.90;;;;;;4981469;28;20030;-76
2023/05/24 05:20:15;;;;;;;13.25;4.68;;;10.90;99.90;;;;;;4978906;28;20103;-76
2023/05/24 05:22:47;;;;;;;25.63;4.53;;;11.00;99.90;;;;;;4989244;28;20053;-76
2023/05/24 05:25:13;;;;;;;17.77;4.13;;;11.00;99.90;;;;;;4995335;28;20045;-76
2023/05/24 05:27:39;;;;;;;23.85;4.30;;;11.00;99.90;;;;;;4999964;28;20444;-76
2023/05/24 05:30:07;;;;;;;22.13;4.28;;;11.00;99.90;;;;;;4999016;28;20044;-76
2023/05/24 05:32:34;;;;;;;28.08;4.20;;;11.10;99.90;;;;;;4978927;28;20608;-76
2023/05/24 05:34:59;;;;;;;23.67;4.38;;;11.20;99.90;;;;;;4996271;28;20606;-76
2023/05/24 05:37:25;;;;;;;21.05;3.90;;;11.30;99.90;;;;;;4996039;28;20027;-78
2023/05/24 05:39:51;;;;;;;35.50;5.45;;;11.30;99.90;;;;;;4980819;28;20034;-82
2023/05/24 05:42:16;;;;;;;20.88;4.38;;;11.30;99.90;;;;;;4983132;28;20033;-82
2023/05/24 05:44:42;;;;;;;22.27;4.28;;;11.30;99.90;;;;;;4986587;28;20038;-76
2023/05/24 05:47:08;;;;;;;25.05;4.72;;;11.50;99.90;;;;;;5000890;28;20034;-76
2023/05/24 05:49:35;;;;;;;22.63;3.97;;;11.50;99.90;;;;;;4999832;28;20018;-76
2023/05/24 05:52:02;;;;;;;18.15;4.40;;;11.50;99.90;;;;;;4984238;28;20026;-77
2023/05/24 05:54:27;;;;;;;29.05;4.63;;;11.70;99.90;;;;;;4983871;28;20040;-77
2023/05/24 05:56:53;;;;;;;15.68;3.53;;;11.80;99.90;;;;;;4999974;28;20663;-76
2023/05/24 05:59:18;;;;;;;24.55;4.15;;;11.90;99.90;;;;;;4991702;28;20636;-76
2023/05/24 06:01:46;;;;;;;18.70;4.57;;;11.90;99.90;;;;;;4979820;28;20109;-76
2023/05/24 06:04:12;;;;;;;27.40;4.35;;;11.90;99.90;;;;;;5001467;28;20379;-77
2023/05/24 06:06:40;;;;;;;17.85;4.18;;;12.00;99.90;;;;;;4996396;28;20093;-76
2023/05/24 06:09:07;;;;;;;26.98;4.30;;;12.10;99.90;;;;;;5000589;28;20033;-76
2023/05/24 06:11:35;;;;;;;24.30;3.90;;;12.20;99.90;;;;;;4999568;28;20513;-76
2023/05/24 06:14:01;;;;;;;23.35;3.85;;;12.40;99.90;;;;;;5000402;28;20108;-75
2023/05/24 06:16:27;;;;;;;25.50;4.63;;;12.50;99.90;;;;;;5001092;28;20033;-77
2023/05/24 06:18:55;;;;;;;25.42;4.38;;;12.70;99.90;;;;;;4996655;28;20018;-76
2023/05/24 06:21:21;;;;;;;21.48;4.63;;;12.90;99.90;;;;;;4999835;28;20520;-76
2023/05/24 06:23:47;;;;;;;25.70;4.00;;;13.10;99.90;;;;;;5000227;28;20041;-77
2023/05/24 06:26:12;;;;;;;25.48;4.55;;;13.30;99.90;;;;;;4999440;28;20554;-76
2023/05/24 06:28:38;;;;;;;38.03;5.60;;;13.60;99.90;;;;;;5000184;28;20385;-76
2023/05/24 06:31:07;;;;;;;25.15;4.82;;;13.60;99.90;;;;;;5000095;28;20078;-75
2023/05/24 06:33:32;;;;;;;28.20;4.53;;;13.70;99.90;;;;;;4999922;28;20038;-76
2023/05/24 06:35:58;;;;;;;31.58;4.60;;;13.70;99.90;;;;;;4981626;28;20026;-76
2023/05/24 06:38:24;;;;;;;23.30;4.25;;;13.80;99.90;;;;;;4999572;28;20628;-77
2023/05/24 06:40:50;;;;;;;15.93;4.93;;;13.90;99.90;;;;;;4989813;28;20030;-78
2023/05/24 06:43:16;;;;;;;20.33;3.90;;;14.00;99.90;;;;;;4999347;28;20037;-77
2023/05/24 06:45:42;;;;;;;17.83;4.40;;;14.20;99.90;;;;;;4983051;28;20021;-76
2023/05/24 06:48:07;;;;;;;19.08;4.00;;;14.10;99.90;;;;;;4988575;28;20080;-76
2023/05/24 06:50:35;;;;;;;23.70;4.57;;;14.00;99.90;;;;;;5000997;28;20711;-77
2023/05/24 06:53:01;;;;;;;28.30;4.28;;;14.00;99.90;;;;;;5000120;28;20026;-77
2023/05/24 06:55:27;;;;;;;27.20;3.88;;;13.90;99.90;;;;;;4996872;28;20027;-77
2023/05/24 06:57:53;;;;;;;19.05;4.13;;;14.10;99.90;;;;;;4981933;28;20494;-77
2023/05/24 07:00:19;;;;;;;27.02;4.05;;;14.30;99.90;;;;;;4989021;28;20153;-76
2023/05/24 07:02:44;;;;;;;21.90;4.63;;;14.60;99.90;;;;;;4981188;28;20037;-78
2023/05/24 07:05:10;;;;;;;24.02;3.83;;;14.70;99.90;;;;;;5000420;28;20052;-77
2023/05/24 07:07:39;;;;;;;29.58;4.47;;;14.80;99.90;;;;;;4999705;28;20033;-77
2023/05/24 07:10:09;;;;;;;16.65;3.75;;;15.00;99.90;;;;;;5000592;28;20026;-77
2023/05/24 07:12:35;;;;;;;20.83;3.25;;;15.10;99.90;;;;;;4989706;28;20033;-75
2023/05/24 07:15:02;;;;;;;20.70;3.72;;;15.30;99.90;;;;;;4996423;28;20026;-76
2023/05/24 07:17:27;;;;;;;27.45;3.92;;;15.50;99.90;;;;;;4998561;28;20034;-75
2023/05/24 07:19:53;;;;;;;20.73;5.15;;;15.40;99.90;;;;;;4999566;28;20097;-76
2023/05/24 07:22:18;;;;;;;24.95;3.78;;;15.20;99.90;;;;;;4999252;28;20083;-76
2023/05/24 07:24:44;;;;;;;16.02;3.78;;;15.30;99.90;;;;;;4981063;28;20469;-76
2023/05/24 07:27:10;;;;;;;21.55;3.42;;;15.20;99.90;;;;;;4995527;28;20415;-77
2023/05/24 07:29:35;;;;;;;23.52;4.00;;;15.30;99.90;;;;;;4998834;28;20300;-75
2023/05/24 07:32:01;;;;;;;20.90;3.70;;;15.40;99.90;;;;;;4998056;28;20424;-75
2023/05/24 07:34:28;;;;;;;21.95;3.88;;;15.50;99.90;;;;;;4999903;28;20026;-77
2023/05/24 07:36:55;;;;;;;27.13;4.05;;;15.60;99.90;;;;;;5000473;28;20531;-78
2023/05/24 07:39:22;;;;;;;19.60;4.53;;;15.50;99.90;;;;;;4981718;28;20033;-76
2023/05/24 07:41:47;;;;;;;22.38;4.45;;;15.60;99.90;;;;;;4999840;28;20087;-76
2023/05/24 07:44:13;;;;;;;26.42;3.97;;;15.60;99.90;;;;;;4997416;28;20034;-75
2023/05/24 07:46:39;;;;;;;25.02;3.25;;;15.60;99.90;;;;;;4978262;28;20036;-77
2023/05/24 07:49:05;;;;;;;19.58;3.83;;;15.40;99.90;;;;;;4998732;28;20481;-75
2023/05/24 07:51:32;;;;;;;14.82;3.67;;;15.30;99.90;;;;;;4995460;28;20018;-75
2023/05/24 07:53:58;;;;;;;24.02;3.60;;;15.30;99.90;;;;;;4999294;28;20072;-76
2023/05/24 07:56:25;;;;;;;20.42;4.07;;;15.20;99.90;;;;;;4994076;28;20017;-74
2023/05/24 07:58:50;;;;;;;18.50;3.58;;;15.30;99.90;;;;;;4999828;28;20032;-79
2023/05/24 08:01:17;;;;;;;18.90;3.55;;;15.40;99.90;;;;;;4999128;28;20108;-77
2023/05/24 08:03:44;;;;;;;16.48;3.33;;;15.70;99.90;;;;;;4979309;28;20485;-76
2023/05/24 08:06:10;;;;;;;15.02;3.63;;;15.70;99.90;;;;;;4998996;28;20038;-75
2023/05/24 08:08:38;;;;;;;26.20;3.65;;;15.80;99.90;;;;;;4997172;28;20484;-77
2023/05/24 08:11:04;;;;;;;12.73;3.65;;;15.80;99.90;;;;;;4988366;28;20466;-77
2023/05/24 08:13:31;;;;;;;23.98;3.72;;;15.80;99.90;;;;;;4980830;28;20026;-77
2023/05/24 08:15:57;;;;;;;21.15;4.35;;;15.70;99.90;;;;;;4998377;28;20026;-77
2023/05/24 08:18:22;;;;;;;16.83;2.85;;;16.10;99.90;;;;;;4998721;28;20025;-75
2023/05/24 08:20:48;;;;;;;20.33;4.38;;;16.60;99.90;;;;;;4998017;28;20025;-77
2023/05/24 08:23:14;;;;;;;18.92;3.78;;;16.60;99.90;;;;;;4980317;28;20140;-75
2023/05/24 08:25:41;;;;;;;14.27;3.22;;;17.00;99.90;;;;;;4997690;28;20531;-76
2023/05/24 08:28:07;;;;;;;18.83;3.28;;;17.40;99.90;;;;;;4995335;28;20709;-76
2023/05/24 08:30:33;;;;;;;30.13;3.63;;;17.70;99.90;;;;;;4995726;28;20018;-77
2023/05/24 08:32:58;;;;;;;13.82;3.08;;;18.10;99.90;;;;;;4998236;28;20146;-77
2023/05/24 08:35:26;;;;;;;15.02;3.42;;;17.90;99.70;;;;;;4996070;28;20026;-78
2023/05/24 08:37:52;;;;;;;14.73;3.33;;;18.10;99.60;;;;;;4997076;28;20293;-75
2023/05/24 08:40:22;;;;;;;15.52;3.35;;;18.00;99.40;;;;;;4998061;28;20065;-76
2023/05/24 08:42:51;;;;;;;15.48;3.15;;;18.00;99.70;;;;;;4987045;28;20476;-75
2023/05/24 08:45:20;;;;;;;17.83;3.63;;;18.30;99.90;;;;;;4997709;28;20144;-76
2023/05/24 08:47:47;;;;;;;13.70;3.30;;;18.50;98.20;;;;;;4979619;28;20511;-76
2023/05/24 08:50:15;;;;;;;15.18;3.25;;;18.60;99.20;;;;;;4996480;28;20092;-77
2023/05/24 08:52:43;;;;;;;18.73;3.15;;;18.80;98.50;;;;;;4979743;28;20577;-75
2023/05/24 08:55:10;;;;;;;23.15;3.65;;;19.30;97.70;;;;;;4995236;28;20063;-76
2023/05/24 08:57:38;;;;;;;14.90;3.67;;;19.30;96.50;;;;;;4997452;28;20056;-78
2023/05/24 09:00:10;;;;;;;15.73;3.55;;;18.90;96.70;;;;;;4989869;28;20044;-77
2023/05/24 09:02:43;;;;;;;14.55;3.17;;;19.10;97.20;;;;;;4984859;28;20604;-77
2023/05/24 09:05:09;;;;;;;;;;;19.70;96.60;;;;;;4973059;28;20392;-76
2023/05/24 09:07:36;;;;;;;13.73;3.03;;;20.30;95.10;;;;;;4997111;28;19909;-77
2023/05/24 09:10:06;;;;;;;13.98;3.10;;;20.50;93.90;;;;;;4998833;28;20169;-77
2023/05/24 09:12:32;;;;;;;18.92;3.45;;;20.30;92.00;;;;;;4969753;28;20045;-76
2023/05/24 09:14:58;;;;;;;18.77;4.05;;;20.50;93.30;;;;;;4997885;28;20261;-77
2023/05/24 09:17:24;;;;;;;13.77;3.45;;;20.70;91.60;;;;;;4979774;28;20496;-77
2023/05/24 09:19:52;;;;;;;8.93;2.80;;;20.30;91.60;;;;;;4997832;28;20443;-77
2023/05/24 09:22:19;;;;;;;11.73;3.15;;;19.80;91.70;;;;;;4978990;28;20034;-77
2023/05/24 09:24:48;;;;;;;14.20;3.17;;;19.40;93.10;;;;;;4995491;28;20438;-77
2023/05/24 09:27:17;;;;;;;15.38;3.33;;;19.10;93.40;;;;;;4997216;28;20021;-77
2023/05/24 09:29:48;;;;;;;13.35;2.88;;;18.90;93.60;;;;;;4996578;28;20575;-78
2023/05/24 09:32:17;;;;;;;11.57;3.22;;;18.80;93.80;;;;;;4996950;28;20054;-78
2023/05/24 09:34:46;;;;;;;14.25;2.72;;;19.10;93.90;;;;;;4999492;28;20026;-79
2023/05/24 09:37:15;;;;;;;8.90;2.92;;;19.10;91.90;;;;;;4995310;28;20128;-78
2023/05/24 09:39:44;;;;;;;16.00;3.35;;;19.10;92.90;;;;;;4978811;28;20037;-77
2023/05/24 09:42:19;;;;;;;11.15;2.50;;;18.80;92.10;;;;;;4976065;28;20027;-78
2023/05/24 09:44:46;;;;;;;13.35;3.10;;;18.70;93.70;;;;;;4980717;28;20035;-78
2023/05/24 09:47:13;;;;;;;13.63;2.70;;;18.60;93.00;;;;;;4995012;28;20069;-77
2023/05/24 09:49:39;;;;;;;15.15;2.90;;;18.80;93.80;;;;;;4997695;28;20434;-78
2023/05/24 09:52:04;;;;;;;12.40;2.90;;;18.60;92.80;;;;;;4980540;28;20065;-78
2023/05/24 09:54:34;;;;;;;9.90;2.85;;;18.40;93.00;;;;;;4993350;28;20061;-78
2023/05/24 09:57:03;;;;;;;14.05;2.83;;;18.40;93.80;;;;;;4980273;28;20032;-77
2023/05/24 09:59:33;;;;;;;13.55;2.83;;;18.70;92.60;;;;;;4994633;28;20093;-77
2023/05/24 10:02:09;;;;;;;5.63;2.47;;;19.60;91.40;;;;;;4978349;28;20030;-77
2023/05/24 10:04:35;;;;;;;14.55;2.92;;;20.60;90.00;;;;;;4976434;28;20057;-77
2023/05/24 10:07:01;;;;;;;10.50;2.92;;;21.50;87.60;;;;;;4995822;28;20470;-78
2023/05/24 10:09:40;;;;;;;8.82;2.42;;;21.60;85.00;;;;;;4979902;28;20034;-78
2023/05/24 10:12:07;;;;;;;8.10;2.53;;;21.00;84.80;;;;;;4995517;28;20669;-78
2023/05/24 10:14:35;;;;;;;11.25;3.30;;;20.30;83.30;;;;;;4998075;28;20394;-78
2023/05/24 10:17:05;;;;;;;8.70;2.92;;;20.80;86.00;;;;;;4977553;28;20030;-77
2023/05/24 10:19:35;;;;;;;15.65;3.05;;;21.80;81.80;;;;;;4997754;28;20504;-77
2023/05/24 10:22:06;;;;;;;10.60;2.33;;;22.40;79.90;;;;;;4994480;28;20040;-77
2023/05/24 10:24:44;;;;;;;8.85;2.95;;;22.10;79.50;;;;;;4996620;28;20362;-77
2023/05/24 10:27:14;;;;;;;11.77;2.60;;;22.40;80.00;;;;;;4994766;28;20029;-80
2023/05/24 10:30:04;;;;;;;10.13;3.17;;;22.50;77.40;;;;;;4998396;28;20049;-78
2023/05/24 10:32:34;;;;;;;8.40;2.65;;;22.30;76.60;;;;;;4998890;28;20076;-77
2023/05/24 10:35:01;;;;;;;9.35;3.10;;;21.90;77.30;;;;;;4998823;28;20091;-77
2023/05/24 10:37:27;;;;;;;12.05;2.75;;;21.10;78.50;;;;;;4982189;28;20151;-77
2023/05/24 10:39:53;;;;;;;9.43;3.00;;;20.80;80.90;;;;;;4998043;28;20057;-78
2023/05/24 10:42:18;;;;;;;9.18;2.92;;;20.20;81.30;;;;;;5007585;28;20426;-79
2023/05/24 10:44:47;;;;;;;13.38;2.28;;;19.60;81.20;;;;;;4999057;28;20537;-77
2023/05/24 10:47:18;;;;;;;8.02;2.60;;;19.60;83.10;;;;;;4981240;28;20446;-77
2023/05/24 10:49:53;;;;;;;21.33;2.65;;;19.10;82.40;;;;;;4998306;28;20041;-77
2023/05/24 10:52:19;;;;;;;8.45;2.58;;;19.20;84.80;;;;;;4998067;28;20037;-77
2023/05/24 10:55:07;;;;;;;14.10;2.97;;;19.40;84.40;;;;;;4979367;28;20388;-77
2023/05/24 10:57:33;;;;;;;11.27;2.67;;;19.90;84.20;;;;;;4974754;28;20034;-78
2023/05/24 11:00:27;;;;;;;16.98;3.13;;;19.90;84.70;;;;;;4981617;28;20073;-78
2023/05/24 11:03:00;;;;;;;11.20;2.97;;;19.70;83.40;;;;;;4999499;28;20030;-78
2023/05/24 11:05:35;;;;;;;10.27;2.63;;;19.60;84.80;;;;;;4998927;28;20030;-79
2023/05/24 11:08:02;;;;;;;13.40;3.30;;;19.40;85.40;;;;;;4999791;28;20100;-78
2023/05/24 11:10:34;;;;;;;9.18;2.97;;;19.60;84.80;;;;;;4996798;28;20035;-78
2023/05/24 11:13:01;;;;;;;9.60;2.47;;;19.30;85.00;;;;;;4998249;28;20030;-78
2023/05/24 11:15:28;;;;;;;8.02;2.67;;;19.10;85.70;;;;;;4998970;28;20026;-79
2023/05/24 11:18:12;;;;;;;17.85;3.33;;;18.90;85.70;;;;;;4979794;28;20022;-78
2023/05/24 11:20:45;;;;;;;11.40;3.35;;;18.80;86.80;;;;;;4973507;28;20037;-79
2023/05/24 11:23:13;;;;;;;7.97;2.60;;;18.60;85.80;;;;;;4971382;28;20260;-78
2023/05/24 11:25:38;;;;;;;12.43;3.13;;;18.60;86.80;;;;;;4978835;28;20022;-78
2023/05/24 11:28:09;;;;;;;16.10;3.20;;;18.60;86.40;;;;;;4998056;28;20060;-78
2023/05/24 11:30:44;;;;;;;17.13;4.43;;;18.40;87.50;;;;;;4995752;28;20120;-79
2023/05/24 11:33:27;;;;;;;16.42;3.72;;;18.10;89.20;;;;;;4978911;28;20030;-78
2023/05/24 11:35:55;;;;;;;14.77;2.92;;;17.90;89.90;;;;;;4996447;28;20041;-78
2023/05/24 11:38:23;;;;;;;9.00;2.85;;;17.90;90.70;;;;;;4995110;28;20261;-77
2023/05/24 11:40:50;;;;;;;13.30;3.08;;;17.90;90.20;;;;;;4997536;28;20037;-78
2023/05/24 11:43:17;;;;;;;11.93;3.03;;;18.00;90.50;;;;;;4997722;28;20119;-78
2023/05/24 11:45:47;;;;;;;17.98;2.95;;;18.00;90.40;;;;;;4995721;28;20092;-77
2023/05/24 11:48:13;;;;;;;20.50;4.88;;;17.90;90.80;;;;;;4980862;28;20032;-78
2023/05/24 11:50:43;;;;;;;12.27;3.05;;;18.00;91.10;;;;;;4997031;28;20116;-78
2023/05/24 11:53:13;;;;;;;12.70;3.35;;;18.20;90.50;;;;;;4995853;28;20478;-77
2023/05/24 11:55:42;;;;;;;12.88;2.88;;;18.30;89.80;;;;;;4978226;28;20032;-77
2023/05/24 11:58:22;;;;;;;8.27;2.47;;;18.40;89.10;;;;;;4996484;28;20028;-77
2023/05/24 12:00:49;;;;;;;18.80;3.00;;;18.50;90.20;;;;;;4998505;28;20030;-78
2023/05/24 12:03:15;;;;;;;23.17;3.55;;;18.50;90.00;;;;;;4980380;28;20014;-78
2023/05/24 12:05:41;;;;;;;13.80;3.05;;;18.60;90.00;;;;;;4998190;28;20105;-79
2023/05/24 12:08:11;;;;;;;17.98;3.25;;;18.40;90.30;;;;;;4999398;28;20513;-79
2023/05/24 12:10:38;;;;;;;14.93;3.33;;;18.40;90.50;;;;;;4976209;28;20378;-80
2023/05/24 12:13:06;;;;;;;17.00;3.30;;;18.50;90.60;;;;;;4979308;28;20136;-81
2023/05/24 12:15:32;;;;;;;9.48;3.63;;;18.40;90.40;;;;;;4996622;28;20035;-77
2023/05/24 12:17:58;;;;;;;8.48;2.72;;;18.50;90.30;;;;;;4991626;28;20014;-77
2023/05/24 12:20:26;;;;;;;17.30;3.47;;;18.70;90.10;;;;;;4998497;28;20045;-78
2023/05/24 12:22:53;;;;;;;13.48;3.53;;;18.70;89.60;;;;;;4995687;28;20057;-78
2023/05/24 12:25:20;;;;;;;14.70;3.33;;;18.70;90.20;;;;;;4997440;28;20519;-77
2023/05/24 12:27:55;;;;;;;10.25;3.42;;;18.60;90.10;;;;;;4999197;28;20045;-77
2023/05/24 12:30:30;;;;;;;15.00;3.20;;;18.60;89.40;;;;;;4998282;28;20791;-77
2023/05/24 12:32:56;;;;;;;17.83;3.50;;;18.60;89.90;;;;;;4997818;28;20494;-77
2023/05/24 12:35:24;;;;;;;16.10;2.97;;;18.70;89.40;;;;;;4996436;28;20022;-78
2023/05/24 12:37:59;;;;;;;14.25;3.08;;;18.70;90.00;;;;;;4999475;28;20089;-77
2023/05/24 12:40:25;;;;;;;14.32;3.90;;;19.10;88.70;;;;;;4996154;28;20549;-78
2023/05/24 12:42:56;;;;;;;16.35;3.28;;;19.50;88.40;;;;;;4979425;28;20164;-80
2023/05/24 12:45:24;;;;;;;18.20;3.97;;;19.70;87.40;;;;;;4979556;28;20118;-78